Latest Weather Observations for Yunta

IDS60801

Issued at 11:01 am CST Thursday 1 September 2016 (issued every 30 minutes, with the page automatically refreshed every 10 minutes)

About weather observations | Map of weather stations | Latest weather observations for SA | Other Formats
Station Details ID: 020062 Name: YUNTA AIRSTRIP Lat: -32.57 Lon: 139.56 Height: 300.0 m
Data from the previous 72 hours. | See also: Recent months at Yunta
Date/Time
CST
Temp
°C
App
Temp
°C
Dew
Point
°C
Rel
Hum
%
Delta-T
°C
Wind Press
QNH
hPa
Press
MSL
hPa
Rain since
9am
mm
Dir  Spd
km/h
Gust
km/h
Spd
kts
Gust
kts
01/11:00am 16.9 15.1 5.5 47 5.6 ENE 4 6 2 3 1015.6 1015.3 0.0
01/10:30am 16.4 15.7 6.8 53 4.8 CALM 0 6 0 3 1016.1 1015.8 0.0
01/10:00am 16.5 14.3 7.7 56 4.5 SE 9 17 5 9 1016.0 1015.7 0.0
01/09:30am 16.2 14.2 6.9 54 4.7 SE 7 17 4 9 1016.1 1015.8 0.0
01/09:00am 15.4 13.7 8.2 62 3.7 ESE 7 9 4 5 1016.2 1016.3 0.2
01/08:30am 14.4 12.9 8.6 68 3.0 ESE 6 9 3 5 1016.2 1016.3 0.2
01/08:00am 12.7 10.5 8.0 73 2.4 ENE 9 13 5 7 1016.4 1016.5 0.2
01/07:30am 11.3 9.6 8.3 82 1.5 NE 7 11 4 6 1016.8 1017.0 0.2
01/07:00am 8.2 6.2 6.3 88 0.9 NE 6 7 3 4 1016.9 1017.1 0.2
01/06:30am 9.3 8.6 6.9 85 1.1 CALM 0 2 0 1 1017.1 1017.3 0.2
01/06:00am 10.3 9.1 8.1 86 1.1 SW 4 6 2 3 1017.1 1017.3 0.2
01/05:30am 10.5 8.8 7.7 83 1.4 SSW 6 7 3 4 1016.9 1017.1 0.2
01/05:00am 10.5 8.8 8.3 86 1.1 WSW 7 17 4 9 1016.8 1017.0 0.2
01/04:30am 9.8 9.3 7.9 88 0.9 CALM 0 0 0 0 1016.6 1016.7 0.2
01/04:00am 9.9 9.4 8.0 88 0.9 CALM 0 0 0 0 1016.8 1017.0 0.2
01/03:30am 10.0 9.5 7.9 87 1.0 CALM 0 0 0 0 1016.9 1017.1 0.2
01/03:00am 9.9 9.0 7.7 86 1.1 SSW 2 4 1 2 1017.1 1017.3 0.2
01/02:30am 9.8 7.9 7.6 86 1.1 SW 7 7 4 4 1017.3 1017.5 0.2
01/02:00am 9.8 9.2 7.6 86 1.1 CALM 0 2 0 1 1017.5 1017.7 0.2
01/01:30am 9.7 9.1 7.6 87 1.0 CALM 0 0 0 0 1017.9 1018.1 0.2
01/01:00am 9.6 9.0 7.5 87 1.0 CALM 0 0 0 0 1018.0 1018.2 0.2
01/12:30am 9.4 8.8 7.2 86 1.1 CALM 0 0 0 0 1018.2 1018.4 0.2
01/12:00am 9.4 8.8 7.2 86 1.1 CALM 0 0 0 0 1018.5 1018.7 0.2
 
Date/Time
CST
Temp
°C
App
Temp
°C
Dew
Point
°C
Rel
Hum
%
Delta-T
°C
Wind Press
QNH
hPa
Press
MSL
hPa
Rain since
9am
mm
Dir  Spd
km/h
Gust
km/h
Spd
kts
Gust
kts
31/11:30pm 9.2 7.7 7.0 86 1.0 N 4 4 2 2 1018.7 1018.9 0.2
31/11:00pm 9.6 8.9 7.0 84 1.2 CALM 0 0 0 0 1018.7 1018.9 0.2
31/10:30pm 10.7 9.8 7.8 82 1.4 SSW 2 4 1 2 1018.8 1019.0 0.2
31/10:00pm 10.6 9.3 7.5 81 1.5 NNW 4 4 2 2 1019.1 1019.2 0.2
31/09:30pm 10.8 9.8 7.3 79 1.7 WSW 2 2 1 1 1019.1 1019.2 0.2
31/09:00pm 11.3 10.3 7.4 77 1.9 WSW 2 4 1 2 1019.0 1019.1 0.2
31/08:30pm 12.1 10.3 7.2 72 2.4 SW 6 7 3 4 1018.7 1018.9 0.2
31/08:00pm 11.9 10.5 7.2 73 2.3 SW 4 6 2 3 1018.5 1018.7 0.2
31/07:30pm 12.7 10.9 7.0 68 2.8 SSW 6 7 3 4 1018.2 1018.4 0.2
31/07:00pm 13.9 11.9 7.0 63 3.4 SW 7 11 4 6 1017.8 1018.0 0.2
31/06:30pm 14.8 12.7 6.6 58 4.0 SW 7 9 4 5 1017.8 1018.0 0.2
31/06:00pm 15.9 13.7 6.1 52 4.8 SW 7 9 4 5 1017.5 1017.7 0.2
31/05:30pm 17.4 14.2 5.0 44 6.0 WSW 11 13 6 7 1017.2 1017.4 0.2
31/05:00pm 17.8 14.6 5.1 43 6.2 SW 11 15 6 8 1016.9 1017.1 0.2
31/04:30pm 18.3 15.6 5.8 44 6.2 WSW 9 13 5 7 1016.9 1017.1 0.2
31/04:00pm 18.4 14.3 4.2 39 6.8 W 15 20 8 11 1016.8 1017.0 0.2
31/03:30pm 18.4 15.2 4.9 41 6.6 W 11 19 6 10 1017.0 1017.2 0.2
31/03:00pm 18.7 14.4 5.2 41 6.6 W 17 22 9 12 1017.1 1017.3 0.2
31/02:30pm 18.5 13.9 5.7 43 6.4 WNW 19 26 10 14 1017.3 1017.5 0.2
31/02:00pm 18.0 14.1 5.2 43 6.3 W 15 24 8 13 1017.4 1017.6 0.2
31/01:30pm 17.6 14.3 6.5 48 5.6 SW 13 20 7 11 1017.5 1017.7 0.2
31/01:00pm 17.0 13.7 6.2 49 5.4 WSW 13 20 7 11 1017.8 1018.0 0.2
31/12:30pm 17.1 13.9 6.9 51 5.1 SW 13 19 7 10 1018.1 1018.3 0.2
31/12:00pm 16.2 12.6 6.6 53 4.8 WSW 15 22 8 12 1018.6 1018.8 0.2
31/11:30am 16.3 12.5 7.5 56 4.5 W 17 30 9 16 1018.8 1019.0 0.0
31/11:00am 15.2 11.5 8.0 62 3.7 W 17 24 9 13 1019.2 1019.3 0.0
31/10:30am 14.8 11.4 7.8 63 3.5 W 15 20 8 11 1019.3 1019.4 0.0
31/10:00am 14.1 11.2 8.3 68 2.9 W 13 20 7 11 1019.4 1019.5 0.0
31/09:30am 13.2 10.5 7.4 68 2.9 WSW 11 22 6 12 1019.3 1019.4 0.0
31/09:00am 13.0 10.4 7.7 70 2.6 W 11 15 6 8 1019.2 1019.3 3.6
31/08:30am 12.1 10.5 8.9 81 1.6 W 7 11 4 6 1019.2 1019.3 3.6
31/08:00am 10.8 9.1 8.2 84 1.3 W 7 11 4 6 1019.0 1019.1 3.6
31/07:30am 10.0 8.3 8.4 90 0.8 W 7 15 4 8 1018.6 1018.8 3.6
31/07:00am 9.1 6.6 8.0 93 0.5 WNW 11 13 6 7 1018.4 1018.6 3.6
31/06:30am 7.3 4.7 6.2 93 0.5 W 9 13 5 7 1017.9 1018.1 3.6
31/06:00am 7.1 6.2 6.0 93 0.5 CALM 0 4 0 2 1017.5 1017.7 3.6
31/05:30am 5.9 4.0 4.7 92 0.5 SW 4 6 2 3 1017.0 1017.2 3.6
31/05:00am 6.8 5.8 5.7 93 0.5 CALM 0 4 0 2 1016.8 1017.0 3.6
31/04:30am 7.8 5.7 6.7 93 0.5 NNW 7 7 4 4 1016.5 1016.6 3.6
31/04:00am 8.5 6.2 7.4 93 0.5 N 9 9 5 5 1016.1 1016.2 3.6
31/03:30am 9.2 7.0 8.0 92 0.6 N 9 11 5 6 1016.1 1016.2 3.6
31/03:00am 9.1 7.2 7.7 91 0.7 NNW 7 9 4 5 1015.9 1016.0 3.6
31/02:30am 9.1 7.2 7.5 90 0.8 NW 7 9 4 5 1016.0 1016.1 3.6
31/02:00am 9.4 7.6 7.0 85 1.1 NW 6 9 3 5 1016.0 1016.1 3.6
31/01:30am 10.8 8.8 8.7 87 1.1 WNW 9 11 5 6 1016.1 1016.2 3.6
31/01:00am 11.3 9.1 9.2 87 1.1 WNW 11 13 6 7 1016.2 1016.3 3.6
31/12:30am 12.0 10.3 9.9 87 1.1 W 9 11 5 6 1016.0 1016.1 3.4
31/12:00am 12.3 10.4 10.4 88 1.0 W 11 17 6 9 1015.9 1016.0 3.4
 
Date/Time
CST
Temp
°C
App
Temp
°C
Dew
Point
°C
Rel
Hum
%
Delta-T
°C
Wind Press
QNH
hPa
Press
MSL
hPa
Rain since
9am
mm
Dir  Spd
km/h
Gust
km/h
Spd
kts
Gust
kts
30/11:30pm 12.4 9.2 11.3 93 0.6 NNW 19 24 10 13 1015.2 1015.4 3.4
30/11:00pm 12.2 8.7 10.9 92 0.7 N 20 30 11 16 1014.9 1015.1 3.4
30/10:30pm 12.4 8.9 11.0 91 0.7 N 20 28 11 15 1014.9 1015.1 3.4
30/10:00pm 12.5 9.1 11.1 91 0.7 N 20 24 11 13 1015.1 1015.3 3.4
30/09:30pm 13.0 8.9 11.6 91 0.8 N 24 32 13 17 1015.1 1015.3 3.4
30/09:00pm 13.2 9.6 11.8 91 0.8 N 22 30 12 16 1015.1 1015.3 3.4
30/08:30pm 13.2 9.1 11.6 90 0.9 N 24 32 13 17 1014.7 1014.9 3.4
30/08:00pm 13.3 9.7 11.7 90 0.9 N 22 28 12 15 1014.6 1014.8 3.4
30/07:30pm 13.3 10.6 11.7 90 0.9 N 17 22 9 12 1014.2 1014.4 3.4
30/07:00pm 13.2 9.8 11.4 89 1.0 N 20 28 11 15 1013.7 1013.8 3.4
30/06:30pm 13.4 10.7 11.8 90 0.9 N 17 20 9 11 1013.4 1013.5 3.4
30/06:00pm 13.7 11.8 11.8 88 1.0 N 13 19 7 10 1013.1 1013.2 3.4
30/05:30pm 14.4 11.1 11.7 84 1.5 N 20 28 11 15 1012.6 1012.7 3.4
30/05:00pm 14.9 11.7 12.0 83 1.6 N 20 28 11 15 1012.3 1012.4 3.4
30/04:30pm 15.5 12.1 12.6 83 1.6 N 22 32 12 17 1012.3 1012.4 3.4
30/04:00pm 15.2 12.2 12.5 84 1.5 N 20 28 11 15 1012.5 1012.6 3.4
30/03:30pm 15.1 11.7 12.6 85 1.4 N 22 30 12 16 1012.5 1012.6 3.4
30/03:00pm 14.6 10.9 12.6 88 1.1 N 24 33 13 18 1012.6 1012.7 3.4
30/02:30pm 14.0 10.2 12.4 90 0.9 N 24 32 13 17 1012.6 1012.7 3.4
30/02:00pm 13.9 10.5 12.5 91 0.8 N 22 30 12 16 1012.6 1012.7 3.4
30/01:30pm 13.5 9.6 12.1 91 0.8 N 24 33 13 18 1013.1 1013.2 3.4
30/01:00pm 13.4 8.6 11.8 90 0.9 NNW 28 39 15 21 1013.3 1013.4 3.0
30/12:30pm 13.3 10.0 11.7 90 0.9 N 20 28 11 15 1013.5 1013.6 2.2
30/12:00pm 13.2 9.9 11.6 90 0.9 N 20 28 11 15 1013.6 1013.7 1.8
30/11:30am 13.1 9.8 11.5 90 0.9 N 20 28 11 15 1013.8 1013.9 1.2
30/11:00am 13.4 10.2 11.1 86 1.2 N 19 30 10 16 1014.0 1014.2 0.2
30/10:30am 14.4 9.7 10.6 78 2.0 N 26 32 14 17 1013.9 1014.1 0.0
30/10:00am 14.9 11.0 10.9 77 2.2 NNW 22 28 12 15 1013.9 1014.1 0.0
30/09:30am 14.1 10.5 10.7 80 1.8 NNW 20 28 11 15 1014.1 1014.3 0.0
30/09:00am 13.7 10.2 11.0 84 1.4 N 20 26 11 14 1013.9 1014.1 1.8
30/08:30am 13.4 10.2 11.1 86 1.2 NNW 19 26 10 14 1014.1 1014.3 1.8
30/08:00am 13.0 9.1 10.9 87 1.1 N 22 30 12 16 1013.6 1013.7 1.8
30/07:30am 13.0 9.6 10.7 86 1.2 NNW 19 26 10 14 1013.3 1013.4 1.8
30/07:00am 12.9 8.6 10.6 86 1.2 NNW 24 30 13 16 1012.7 1012.8 1.8
30/06:30am 13.4 7.5 10.6 83 1.5 N 32 44 17 24 1011.6 1011.8 1.8
30/06:24am 13.3 7.8 10.7 84 1.4 N 30 44 16 24 1010.6 1010.7 1.8
30/06:00am 13.3 7.2 10.5 83 1.5 N 33 46 18 25 1012.7 1012.8 1.8
30/05:30am 13.2 7.0 10.2 82 1.6 N 33 48 18 26 1012.2 1012.3 1.8
30/05:00am 13.3 4.9 9.7 79 1.9 N 44 57 24 31 1011.7 1011.9 1.8
30/04:41am 13.3 5.4 9.4 77 2.0 N 41 61 22 33 1011.3 1011.5 1.8
30/04:30am 13.3 5.2 8.8 74 2.3 N 41 56 22 30 1011.4 1011.6 1.8
30/04:00am 13.4 6.8 8.5 72 2.5 N 33 46 18 25 1012.0 1012.1 1.8
30/03:30am 12.1 6.5 8.9 81 1.6 N 28 35 15 19 1013.0 1013.1 1.8
30/03:00am 11.7 6.9 8.9 83 1.4 N 24 33 13 18 1013.3 1013.4 1.8
30/02:30am 11.5 7.7 9.1 85 1.2 NNE 19 24 10 13 1013.5 1013.6 1.8
30/02:00am 11.5 9.9 8.9 84 1.3 NNW 7 9 4 5 1014.5 1014.7 1.8
30/01:30am 11.5 9.6 8.9 84 1.3 NNE 9 15 5 8 1014.6 1014.8 1.8
30/01:00am 12.3 9.8 8.4 77 2.0 NNW 11 13 6 7 1015.1 1015.3 1.6
30/12:30am 13.8 9.6 7.3 65 3.2 NNE 19 26 10 14 1015.0 1015.2 1.6
30/12:00am 14.2 9.7 7.0 62 3.6 NNE 20 30 11 16 1014.4 1014.6 1.6
 
Date/Time
CST
Temp
°C
App
Temp
°C
Dew
Point
°C
Rel
Hum
%
Delta-T
°C
Wind Press
QNH
hPa
Press
MSL
hPa
Rain since
9am
mm
Dir  Spd
km/h
Gust
km/h
Spd
kts
Gust
kts
29/11:30pm 14.1 9.3 7.4 64 3.3 NNE 22 32 12 17 1015.0 1015.2 1.6
29/11:00pm 13.8 8.0 7.8 67 3.0 NNE 28 39 15 21 1015.5 1015.6 1.6
29/10:30pm 13.2 7.5 8.3 72 2.5 NNE 28 37 15 20 1015.9 1016.0 1.6
29/10:00pm 13.1 7.0 8.4 73 2.4 N 30 43 16 23 1016.1 1016.2 1.4
29/09:30pm 13.5 7.7 8.1 70 2.7 N 28 37 15 20 1016.0 1016.1 1.4
29/09:00pm 13.5 8.5 7.9 69 2.8 NNE 24 39 13 21 1015.6 1015.7 1.4
29/08:30pm 14.5 8.9 7.3 62 3.6 NNE 26 39 14 21 1015.5 1015.6 1.4
29/08:00pm 13.1 9.1 8.2 72 2.5 NNE 19 28 10 15 1015.9 1016.0 1.4
29/07:30pm 12.2 7.9 7.9 75 2.1 N 20 32 11 17 1016.1 1016.2 1.4
29/07:00pm 12.3 6.8 7.6 73 2.3 N 26 37 14 20 1016.2 1016.3 1.4
29/06:30pm 12.6 8.3 7.7 72 2.4 NNE 20 30 11 16 1016.0 1016.1 1.4
29/06:00pm 13.4 9.0 7.6 68 2.9 N 20 30 11 16 1016.0 1016.1 1.2
29/05:30pm 12.9 8.9 8.2 73 2.4 N 19 26 10 14 1015.9 1016.0 1.2
29/05:00pm 13.0 7.6 8.1 72 2.5 N 26 33 14 18 1015.5 1015.6 1.0
29/04:30pm 14.0 7.8 8.0 67 3.0 N 30 43 16 23 1014.7 1014.9 0.4
29/04:00pm 15.8 10.0 6.3 53 4.7 N 26 37 14 20 1014.0 1014.2 0.2
29/03:30pm 16.3 10.0 5.9 50 5.1 N 28 41 15 22 1013.8 1013.9 0.2
29/03:00pm 16.1 11.4 6.0 51 5.0 N 20 32 11 17 1013.6 1013.7 0.2
29/02:30pm 16.4 12.6 6.0 50 5.1 NNE 15 24 8 13 1014.0 1014.2 0.2
29/02:00pm 15.8 11.7 6.0 52 4.8 NNE 17 26 9 14 1014.1 1014.3 0.2
29/01:30pm 15.5 10.4 6.2 54 4.6 NNE 22 30 12 16 1014.5 1014.7 0.2
29/01:00pm 15.3 8.7 6.1 54 4.5 N 30 41 16 22 1015.5 1015.6 0.0
29/12:30pm 15.5 11.0 6.2 54 4.6 NNE 19 30 10 16 1015.7 1015.8 0.0
29/12:00pm 13.2 7.4 6.3 63 3.3 N 26 37 14 20 1016.6 1016.7 0.0
29/11:34am 15.0 6.5 2.9 44 5.5 N 37 56 20 30 1016.5 1016.6 0.0
29/11:30am 15.3 5.9 2.5 42 5.8 N 41 56 22 30 1016.5 1016.6 0.0

Other Formats:

Comma delimited format used in spreadsheet applications
http://www.bom.gov.au/fwo/IDS60801/IDS60801.94684.axf

JavaScript Object Notation format (JSON) in row-major order
http://www.bom.gov.au/fwo/IDS60801/IDS60801.94684.json